Time;durP1;ratioP1;P1;durP2;ratioP2;P2;SDS_P1;SDS_P2;PMS_P1;PMS_P2;Temp;Humidity;BMP_temperature;BMP_pressure;BME280_temperature;BME280_humidity;BME280_pressure;Samples;Min_cycle;Max_cycle;Signal;HPM_P1;HPM_P2
2022/03/26 00:00:25;;;;;;;59.70;30.27;;;5.90;99.90;;;;;;5076791;28;20452;-45
2022/03/26 00:02:52;;;;;;;58.37;29.37;;;5.80;99.90;;;;;;5078540;27;20227;-45
2022/03/26 00:05:20;;;;;;;57.90;30.33;;;5.70;99.90;;;;;;5077305;27;20398;-45
2022/03/26 00:07:47;;;;;;;56.20;28.13;;;5.80;99.90;;;;;;5075034;28;20439;-45
2022/03/26 00:10:14;;;;;;;62.80;29.63;;;5.70;99.90;;;;;;5057595;28;20554;-49
2022/03/26 00:12:41;;;;;;;55.80;27.77;;;5.80;99.90;;;;;;5079087;28;20472;-45
2022/03/26 00:15:09;;;;;;;55.17;26.73;;;5.60;99.90;;;;;;5069098;28;20687;-44
2022/03/26 00:17:38;;;;;;;62.87;30.33;;;5.60;99.90;;;;;;5090035;28;20209;-44
2022/03/26 00:20:06;;;;;;;56.23;29.20;;;5.60;99.90;;;;;;5085268;28;20409;-49
2022/03/26 00:22:34;;;;;;;59.80;28.57;;;5.60;99.90;;;;;;5080597;28;20208;-44
2022/03/26 00:25:01;;;;;;;55.77;28.20;;;5.70;99.90;;;;;;5074995;27;20306;-49
2022/03/26 00:27:27;;;;;;;58.73;30.00;;;5.70;99.90;;;;;;5077848;27;20226;-43
2022/03/26 00:29:54;;;;;;;61.33;30.33;;;5.70;99.90;;;;;;5087817;28;20418;-47
2022/03/26 00:32:21;;;;;;;63.63;31.13;;;5.70;99.90;;;;;;5086829;28;20207;-45
2022/03/26 00:34:50;;;;;;;66.40;31.80;;;5.70;99.90;;;;;;5092343;28;20240;-49
2022/03/26 00:37:17;;;;;;;68.43;32.63;;;5.70;99.90;;;;;;5089905;27;20197;-46
2022/03/26 00:39:44;;;;;;;62.83;31.93;;;5.70;99.90;;;;;;5095570;28;20207;-47
2022/03/26 00:42:10;;;;;;;64.47;32.97;;;5.70;99.90;;;;;;5054708;27;21129;-44
2022/03/26 00:44:38;;;;;;;67.77;31.50;;;5.80;99.90;;;;;;5080176;28;20565;-44
2022/03/26 00:47:06;;;;;;;68.53;33.70;;;5.80;99.90;;;;;;5098716;27;20250;-46
2022/03/26 00:49:33;;;;;;;68.27;32.53;;;5.80;99.90;;;;;;5080837;28;20209;-46
2022/03/26 00:52:01;;;;;;;68.07;33.23;;;5.80;99.90;;;;;;5090235;28;20589;-48
2022/03/26 00:54:30;;;;;;;63.17;32.13;;;5.80;99.90;;;;;;5099860;28;20227;-47
2022/03/26 00:56:58;;;;;;;66.33;33.73;;;5.80;99.90;;;;;;5070740;27;20536;-47
2022/03/26 00:59:25;;;;;;;73.33;35.40;;;5.80;99.90;;;;;;5081296;28;20533;-47
2022/03/26 01:01:52;;;;;;;72.50;35.03;;;5.80;99.90;;;;;;5075468;28;20210;-44
2022/03/26 01:04:19;;;;;;;84.37;36.90;;;5.70;99.90;;;;;;5085309;27;20300;-46
2022/03/26 01:06:46;;;;;;;74.17;38.07;;;5.70;99.90;;;;;;5091812;28;20244;-44
2022/03/26 01:09:15;;;;;;;74.30;35.93;;;5.70;99.90;;;;;;5095930;28;20393;-46
2022/03/26 01:11:42;;;;;;;74.00;37.10;;;5.60;99.90;;;;;;5063455;28;20754;-45
2022/03/26 01:14:08;;;;;;;77.30;36.43;;;5.60;99.90;;;;;;5075259;28;20256;-44
2022/03/26 01:16:35;;;;;;;77.90;37.27;;;5.70;99.90;;;;;;5071142;28;20299;-45
2022/03/26 01:19:03;;;;;;;79.20;36.67;;;5.60;99.90;;;;;;5089073;28;20208;-43
2022/03/26 01:21:29;;;;;;;78.77;37.63;;;5.70;99.90;;;;;;5094846;28;20614;-46
2022/03/26 01:23:56;;;;;;;81.27;36.10;;;5.80;99.90;;;;;;5090027;28;20300;-45
2022/03/26 01:26:25;;;;;;;81.83;39.50;;;5.80;99.90;;;;;;5094409;28;20614;-45
2022/03/26 01:28:52;;;;;;;78.07;37.53;;;5.80;99.90;;;;;;5071986;28;20209;-45
2022/03/26 01:31:19;;;;;;;86.03;38.07;;;5.90;99.90;;;;;;5079670;28;20209;-44
2022/03/26 01:33:48;;;;;;;74.43;36.77;;;5.90;99.90;;;;;;5086648;28;20228;-45
2022/03/26 01:36:15;;;;;;;74.43;37.20;;;5.80;99.90;;;;;;5091443;28;20502;-44
2022/03/26 01:38:42;;;;;;;73.10;36.60;;;5.80;99.90;;;;;;5094695;28;20497;-44
2022/03/26 01:41:09;;;;;;;79.27;36.03;;;5.70;99.90;;;;;;5095197;28;20282;-48
2022/03/26 01:43:37;;;;;;;77.27;36.17;;;5.70;99.90;;;;;;5065267;28;20502;-44
2022/03/26 01:46:04;;;;;;;79.80;38.00;;;5.60;99.90;;;;;;5087998;28;20281;-49
2022/03/26 01:48:31;;;;;;;77.03;36.97;;;5.60;99.90;;;;;;5083766;28;20246;-49
2022/03/26 01:51:14;;;;;;;76.20;36.40;;;5.60;99.90;;;;;;5075461;28;21207;-44
2022/03/26 01:53:41;;;;;;;77.77;36.93;;;5.60;99.90;;;;;;5094519;28;20302;-46
2022/03/26 01:56:08;;;;;;;81.70;38.53;;;5.50;99.90;;;;;;5100556;28;20210;-48
2022/03/26 01:58:37;;;;;;;76.93;35.90;;;5.60;99.90;;;;;;5066032;28;20639;-45
2022/03/26 02:01:04;;;;;;;75.93;36.27;;;5.60;99.90;;;;;;5085050;28;20280;-45
2022/03/26 02:03:31;;;;;;;74.40;36.40;;;5.60;99.90;;;;;;5082647;28;20695;-48
2022/03/26 02:05:58;;;;;;;81.57;37.77;;;5.60;99.90;;;;;;5069716;28;20623;-42
2022/03/26 02:08:25;;;;;;;74.83;36.87;;;5.60;99.90;;;;;;5091923;28;20502;-44
2022/03/26 02:10:52;;;;;;;86.83;38.37;;;5.60;99.90;;;;;;5084482;28;20441;-45
2022/03/26 02:13:19;;;;;;;74.40;35.50;;;5.50;99.90;;;;;;5081215;28;20245;-44
2022/03/26 02:15:48;;;;;;;77.33;37.87;;;5.50;99.90;;;;;;5086757;28;20595;-46
2022/03/26 02:18:15;;;;;;;76.50;36.33;;;5.50;99.90;;;;;;5086001;28;20280;-44
2022/03/26 02:20:45;;;;;;;82.17;38.07;;;5.50;99.90;;;;;;5084815;28;20346;-45
2022/03/26 02:23:12;;;;;;;88.10;39.00;;;5.60;99.90;;;;;;5083957;27;20233;-44
2022/03/26 02:25:39;;;;;;;86.43;37.80;;;5.60;99.90;;;;;;5089262;28;20296;-45
2022/03/26 02:28:07;;;;;;;84.90;37.37;;;5.60;99.90;;;;;;5099103;27;20525;-44
2022/03/26 02:30:34;;;;;;;81.53;36.20;;;5.60;99.90;;;;;;5087556;27;20214;-45
2022/03/26 02:33:00;;;;;;;87.90;37.53;;;5.60;99.90;;;;;;5082387;27;20475;-45
2022/03/26 02:35:28;;;;;;;76.00;37.10;;;5.60;99.90;;;;;;5078440;27;20202;-45
2022/03/26 02:37:56;;;;;;;76.37;35.17;;;5.50;99.90;;;;;;5091946;28;20214;-45
2022/03/26 02:40:23;;;;;;;73.90;38.00;;;5.50;99.90;;;;;;5085414;27;20237;-43
2022/03/26 02:42:50;;;;;;;78.53;36.60;;;5.40;99.90;;;;;;5093200;28;20396;-45
2022/03/26 02:45:17;;;;;;;80.37;35.80;;;5.30;99.90;;;;;;5080915;27;20206;-45
2022/03/26 02:47:43;;;;;;;79.73;37.60;;;5.40;99.90;;;;;;5092547;27;20219;-44
2022/03/26 02:50:10;;;;;;;75.43;36.40;;;5.40;99.90;;;;;;5092763;27;20288;-45
2022/03/26 02:52:37;;;;;;;84.13;37.93;;;5.30;99.90;;;;;;5090849;27;20563;-44
2022/03/26 02:55:08;;;;;;;82.13;36.17;;;5.30;99.90;;;;;;5086305;27;20316;-45
2022/03/26 02:57:36;;;;;;;84.63;36.63;;;5.30;99.90;;;;;;5099941;28;20410;-44
2022/03/26 03:00:03;;;;;;;76.23;37.57;;;5.20;99.90;;;;;;5094279;28;20224;-46
2022/03/26 03:02:31;;;;;;;78.73;37.63;;;5.30;99.90;;;;;;5061269;28;20214;-44
2022/03/26 03:04:58;;;;;;;80.00;38.53;;;5.30;99.90;;;;;;5085293;28;20205;-45
2022/03/26 03:07:25;;;;;;;87.27;36.60;;;5.20;99.90;;;;;;5084567;27;20247;-45
2022/03/26 03:09:52;;;;;;;79.57;37.70;;;5.20;99.90;;;;;;5084364;27;20421;-44
2022/03/26 03:12:22;;;;;;;75.37;36.50;;;5.30;99.90;;;;;;5077326;27;20610;-44
2022/03/26 03:14:49;;;;;;;84.37;37.60;;;5.30;99.90;;;;;;5097361;27;20555;-44
2022/03/26 03:17:16;;;;;;;82.83;38.80;;;5.30;99.90;;;;;;5075632;27;20287;-45
2022/03/26 03:19:43;;;;;;;82.90;39.53;;;5.30;99.90;;;;;;5084610;28;20214;-45
2022/03/26 03:22:10;;;;;;;80.83;37.53;;;5.30;99.90;;;;;;5099964;28;20519;-45
2022/03/26 03:24:37;;;;;;;83.60;39.13;;;5.20;99.90;;;;;;5074543;27;20596;-46
2022/03/26 03:27:04;;;;;;;80.80;36.90;;;5.20;99.90;;;;;;5089138;27;20297;-44
2022/03/26 03:29:33;;;;;;;72.13;34.90;;;5.20;99.90;;;;;;5100402;28;20426;-44
2022/03/26 03:32:00;;;;;;;73.97;35.13;;;5.20;99.90;;;;;;5064559;28;20212;-46
2022/03/26 03:34:26;;;;;;;83.73;37.27;;;5.20;99.90;;;;;;5081754;27;20625;-45
2022/03/26 03:36:53;;;;;;;80.23;36.77;;;5.10;99.90;;;;;;5080059;27;20214;-44
2022/03/26 03:39:22;;;;;;;87.27;37.13;;;5.10;99.90;;;;;;5088402;28;20214;-45
2022/03/26 03:41:49;;;;;;;75.57;37.17;;;5.20;99.90;;;;;;5082954;27;20203;-45
2022/03/26 03:44:16;;;;;;;83.57;37.50;;;5.20;99.90;;;;;;5077586;28;20269;-44
2022/03/26 03:46:44;;;;;;;82.73;36.30;;;5.20;99.90;;;;;;5095392;27;20279;-45
2022/03/26 03:49:11;;;;;;;83.97;37.47;;;5.20;99.90;;;;;;5072989;27;20379;-49
2022/03/26 03:51:38;;;;;;;81.60;37.17;;;5.20;99.90;;;;;;5070262;27;20207;-47
2022/03/26 03:54:05;;;;;;;80.50;36.10;;;5.10;99.90;;;;;;5086205;27;20327;-47
2022/03/26 03:56:32;;;;;;;78.50;37.47;;;5.10;99.90;;;;;;5082288;28;20544;-48
2022/03/26 03:58:59;;;;;;;75.13;36.97;;;5.10;99.90;;;;;;5083240;27;20587;-46
2022/03/26 04:01:25;;;;;;;83.20;37.90;;;5.00;99.90;;;;;;5086214;27;20378;-47
2022/03/26 04:03:54;;;;;;;88.57;37.60;;;5.00;99.90;;;;;;5069724;27;20239;-43
2022/03/26 04:06:20;;;;;;;79.27;35.83;;;5.00;99.90;;;;;;5075017;28;20207;-48
2022/03/26 04:08:47;;;;;;;81.47;37.60;;;5.10;99.90;;;;;;5087264;27;20226;-48
2022/03/26 04:11:14;;;;;;;83.87;38.53;;;4.90;99.90;;;;;;5075632;27;20311;-49
2022/03/26 04:13:41;;;;;;;80.47;36.67;;;5.00;99.90;;;;;;5092715;28;20385;-45
2022/03/26 04:16:08;;;;;;;79.63;36.17;;;4.90;99.90;;;;;;5083926;27;20231;-46
2022/03/26 04:18:35;;;;;;;88.50;39.03;;;4.70;99.90;;;;;;5063803;28;20441;-45
2022/03/26 04:21:03;;;;;;;86.87;37.50;;;4.70;99.90;;;;;;5091877;28;20693;-45
2022/03/26 04:23:30;;;;;;;84.73;36.60;;;4.70;99.90;;;;;;5082726;28;20711;-44
2022/03/26 04:25:57;;;;;;;79.20;36.37;;;4.90;99.90;;;;;;5082947;27;20218;-45
2022/03/26 04:28:24;;;;;;;76.53;35.07;;;4.90;99.90;;;;;;5081666;28;20225;-45
2022/03/26 04:30:50;;;;;;;78.03;35.20;;;4.90;99.90;;;;;;5087379;28;20286;-44
2022/03/26 04:33:17;;;;;;;71.47;34.60;;;4.90;99.90;;;;;;5072367;28;20235;-45
2022/03/26 04:35:44;;;;;;;68.17;33.60;;;4.90;99.90;;;;;;5089589;28;20439;-44
2022/03/26 04:38:13;;;;;;;78.17;35.07;;;4.80;99.90;;;;;;5086894;27;20274;-45
2022/03/26 04:40:40;;;;;;;71.97;34.27;;;4.80;99.90;;;;;;5087430;27;20392;-44
2022/03/26 04:43:07;;;;;;;71.07;34.33;;;4.70;99.90;;;;;;5089795;28;20227;-45
2022/03/26 04:45:34;;;;;;;76.37;33.87;;;4.60;99.90;;;;;;5092212;28;20280;-45
2022/03/26 04:48:01;;;;;;;74.23;34.20;;;4.50;99.90;;;;;;5076979;27;20227;-44
2022/03/26 04:50:27;;;;;;;75.23;36.03;;;4.60;99.90;;;;;;5076314;28;20294;-45
2022/03/26 04:52:54;;;;;;;72.63;34.77;;;4.60;99.90;;;;;;5095253;28;20250;-44
2022/03/26 04:55:23;;;;;;;79.63;35.97;;;4.50;99.90;;;;;;5077387;28;20535;-46
2022/03/26 04:57:51;;;;;;;75.10;35.13;;;4.40;99.90;;;;;;5086393;28;20274;-44
2022/03/26 05:00:20;;;;;;;81.70;37.13;;;4.40;99.90;;;;;;5084046;27;20204;-46
2022/03/26 05:02:48;;;;;;;70.53;33.37;;;4.70;99.90;;;;;;5097879;28;20231;-45
2022/03/26 05:05:15;;;;;;;73.07;34.70;;;4.60;99.90;;;;;;5072518;28;20213;-44
2022/03/26 05:07:48;;;;;;;80.17;35.67;;;4.60;99.90;;;;;;5081847;28;20230;-45
2022/03/26 05:10:16;;;;;;;73.83;34.73;;;4.60;99.90;;;;;;5079563;28;20207;-44
2022/03/26 05:12:45;;;;;;;73.40;32.97;;;4.40;99.90;;;;;;5095884;28;20478;-46
2022/03/26 05:15:13;;;;;;;64.20;32.23;;;4.40;99.90;;;;;;5074025;28;20212;-43
2022/03/26 05:17:40;;;;;;;79.87;33.97;;;4.20;99.90;;;;;;5086334;28;20277;-45
2022/03/26 05:20:08;;;;;;;68.93;32.40;;;4.30;99.90;;;;;;5078736;28;20203;-45
2022/03/26 05:22:36;;;;;;;73.27;33.57;;;4.30;99.90;;;;;;5079875;28;20203;-45
2022/03/26 05:25:03;;;;;;;72.83;33.07;;;4.30;99.90;;;;;;5092662;28;20306;-45
2022/03/26 05:27:30;;;;;;;79.10;34.33;;;4.10;99.90;;;;;;5097371;28;20199;-46
2022/03/26 05:29:59;;;;;;;67.80;32.70;;;4.10;99.90;;;;;;5073817;28;20326;-45
2022/03/26 05:32:26;;;;;;;74.67;34.57;;;4.10;99.90;;;;;;5096827;28;20204;-45
2022/03/26 05:34:53;;;;;;;67.10;33.47;;;4.10;99.90;;;;;;5064263;28;20825;-44
2022/03/26 05:37:20;;;;;;;77.13;34.67;;;4.20;99.90;;;;;;5082538;28;20214;-45
2022/03/26 05:39:47;;;;;;;80.40;34.90;;;4.10;99.90;;;;;;5072462;28;20271;-46
2022/03/26 05:42:15;;;;;;;78.30;35.70;;;4.20;99.90;;;;;;5088805;28;20252;-46
2022/03/26 05:44:43;;;;;;;80.57;36.77;;;4.20;99.90;;;;;;5093062;28;20545;-44
2022/03/26 05:47:11;;;;;;;74.97;35.43;;;4.30;99.90;;;;;;5093980;27;20225;-44
2022/03/26 05:49:37;;;;;;;76.93;35.33;;;4.40;99.90;;;;;;5089796;28;20233;-44
2022/03/26 05:52:05;;;;;;;84.40;34.43;;;4.30;99.90;;;;;;5076472;28;20210;-44
2022/03/26 05:54:32;;;;;;;83.33;37.20;;;4.40;99.90;;;;;;5094526;27;20230;-44
2022/03/26 05:56:59;;;;;;;77.40;35.03;;;4.40;99.90;;;;;;5073001;28;20541;-44
2022/03/26 05:59:28;;;;;;;79.27;36.13;;;4.40;99.90;;;;;;5099571;27;20232;-45
2022/03/26 06:01:55;;;;;;;91.77;39.90;;;4.40;99.90;;;;;;5081520;27;20689;-45
2022/03/26 06:04:24;;;;;;;86.13;38.10;;;4.50;99.90;;;;;;5082132;27;20543;-44
2022/03/26 06:06:51;;;;;;;83.93;36.57;;;4.50;99.90;;;;;;5082555;27;20632;-44
2022/03/26 06:09:18;;;;;;;88.93;38.13;;;4.70;99.90;;;;;;5090556;28;20638;-44
2022/03/26 06:11:45;;;;;;;93.33;41.53;;;4.70;99.90;;;;;;5083136;28;20207;-46
2022/03/26 06:14:12;;;;;;;85.33;39.07;;;4.80;99.90;;;;;;5095084;27;20289;-45
2022/03/26 06:16:39;;;;;;;92.07;40.03;;;4.90;99.90;;;;;;5092288;27;20299;-44
2022/03/26 06:19:05;;;;;;;88.13;39.27;;;5.00;99.90;;;;;;5082491;27;20302;-45
2022/03/26 06:21:34;;;;;;;82.30;39.10;;;5.00;99.90;;;;;;5096937;27;20823;-44
2022/03/26 06:24:02;;;;;;;86.47;35.47;;;5.10;99.90;;;;;;5075800;27;20232;-44
2022/03/26 06:26:29;;;;;;;84.87;36.53;;;5.10;99.90;;;;;;5069287;27;21323;-45
2022/03/26 06:28:56;;;;;;;100.27;40.47;;;5.10;99.90;;;;;;5095022;27;20298;-44
2022/03/26 06:31:24;;;;;;;86.30;38.77;;;5.10;99.90;;;;;;5084433;27;20204;-45
2022/03/26 06:33:50;;;;;;;100.73;42.30;;;5.20;99.90;;;;;;5081382;28;20235;-46
2022/03/26 06:36:18;;;;;;;93.93;40.30;;;5.30;99.90;;;;;;5096864;28;20399;-44
2022/03/26 06:38:46;;;;;;;90.57;41.17;;;5.30;99.90;;;;;;5080196;27;21350;-45
2022/03/26 06:41:13;;;;;;;94.27;40.90;;;5.50;99.90;;;;;;5084229;28;20391;-45
2022/03/26 06:43:41;;;;;;;98.70;41.00;;;5.60;99.90;;;;;;5084142;27;20663;-45
2022/03/26 06:46:09;;;;;;;93.83;42.17;;;5.60;99.90;;;;;;5079391;27;20586;-43
2022/03/26 06:48:36;;;;;;;98.57;41.37;;;5.70;99.90;;;;;;5094417;28;20586;-44
2022/03/26 06:51:04;;;;;;;95.97;40.47;;;5.80;99.90;;;;;;5099398;27;20230;-45
2022/03/26 06:53:33;;;;;;;96.03;41.40;;;5.80;99.90;;;;;;5067069;27;20363;-45
2022/03/26 06:56:03;;;;;;;94.53;41.97;;;5.90;99.90;;;;;;5090130;28;21257;-44
2022/03/26 06:58:30;;;;;;;89.60;39.93;;;6.00;99.90;;;;;;5081769;27;20711;-45
2022/03/26 07:00:58;;;;;;;94.07;41.53;;;6.10;99.90;;;;;;5073993;27;20217;-44
2022/03/26 07:03:25;;;;;;;94.17;43.10;;;6.20;99.90;;;;;;5070547;27;20327;-44
2022/03/26 07:05:52;;;;;;;88.20;40.43;;;6.30;99.90;;;;;;5090372;27;20206;-44
2022/03/26 07:08:19;;;;;;;88.37;39.90;;;6.40;99.90;;;;;;5066292;27;20229;-44
2022/03/26 07:10:46;;;;;;;95.13;41.60;;;6.40;99.90;;;;;;5085577;27;20554;-45
2022/03/26 07:13:15;;;;;;;90.13;41.53;;;6.50;99.90;;;;;;5085424;27;20267;-44
2022/03/26 07:15:42;;;;;;;97.80;42.07;;;6.60;99.90;;;;;;5061851;27;20600;-45
2022/03/26 07:18:09;;;;;;;93.60;39.83;;;6.70;99.90;;;;;;5078148;27;20549;-46
2022/03/26 07:20:36;;;;;;;101.87;42.57;;;6.70;99.90;;;;;;5081477;27;20472;-45
2022/03/26 07:23:03;;;;;;;86.77;41.27;;;6.80;99.90;;;;;;5073580;27;20327;-45
2022/03/26 07:25:30;;;;;;;79.97;41.13;;;6.80;99.90;;;;;;5071937;27;20211;-44
2022/03/26 07:27:57;;;;;;;88.30;40.70;;;6.90;99.90;;;;;;5077389;27;20239;-45
2022/03/26 07:30:25;;;;;;;88.83;39.17;;;6.90;99.90;;;;;;5077381;27;20331;-46
2022/03/26 07:32:52;;;;;;;84.27;39.47;;;7.10;99.90;;;;;;5088820;27;20233;-45
2022/03/26 07:35:20;;;;;;;82.43;40.80;;;7.20;99.90;;;;;;5071809;27;20471;-44
2022/03/26 07:37:46;;;;;;;91.90;40.37;;;7.30;99.90;;;;;;5086085;27;20267;-45
2022/03/26 07:40:13;;;;;;;91.50;38.63;;;7.40;99.90;;;;;;5056873;27;20215;-45
2022/03/26 07:42:40;;;;;;;95.73;39.73;;;7.50;99.90;;;;;;5068045;28;20207;-45
2022/03/26 07:45:09;;;;;;;83.43;39.50;;;7.70;99.90;;;;;;5088712;27;20207;-45
2022/03/26 07:47:39;;;;;;;86.90;38.87;;;7.90;99.90;;;;;;5084843;27;20578;-44
2022/03/26 07:50:07;;;;;;;78.87;39.43;;;8.10;99.90;;;;;;5079582;28;20597;-46
2022/03/26 07:52:34;;;;;;;76.27;37.50;;;8.20;99.90;;;;;;5085248;27;20387;-45
2022/03/26 07:55:02;;;;;;;74.80;37.17;;;8.30;99.90;;;;;;5068064;27;20243;-44
2022/03/26 07:57:28;;;;;;;74.40;37.87;;;8.30;99.90;;;;;;5072105;27;20222;-44
2022/03/26 07:59:55;;;;;;;75.23;37.20;;;8.40;99.90;;;;;;5098475;27;20202;-45
2022/03/26 08:02:22;;;;;;;84.20;37.80;;;8.50;99.90;;;;;;5065880;27;20207;-43
2022/03/26 08:04:51;;;;;;;75.37;38.27;;;8.50;99.90;;;;;;5092368;27;20251;-46
2022/03/26 08:07:19;;;;;;;74.00;35.97;;;8.60;99.90;;;;;;5091836;27;20235;-45
2022/03/26 08:09:46;;;;;;;75.13;37.13;;;8.70;99.90;;;;;;5078482;27;20317;-46
2022/03/26 08:12:13;;;;;;;75.70;36.63;;;8.90;99.90;;;;;;5064045;27;20223;-43
2022/03/26 08:14:40;;;;;;;67.70;34.10;;;9.00;99.90;;;;;;5076889;27;20476;-46
2022/03/26 08:17:07;;;;;;;63.00;31.97;;;9.10;99.90;;;;;;5078710;27;20243;-44
2022/03/26 08:19:36;;;;;;;71.20;35.23;;;9.10;99.90;;;;;;5074680;27;20719;-45
2022/03/26 08:22:05;;;;;;;68.07;33.20;;;9.30;99.90;;;;;;5087033;27;20242;-48
2022/03/26 08:24:32;;;;;;;60.17;31.87;;;9.40;99.90;;;;;;5078135;27;20226;-44
2022/03/26 08:26:59;;;;;;;60.30;31.53;;;9.50;99.90;;;;;;5052609;27;20217;-50
2022/03/26 08:29:26;;;;;;;63.43;32.30;;;9.60;99.90;;;;;;5068725;27;20215;-46
2022/03/26 08:31:53;;;;;;;58.60;31.77;;;9.60;99.90;;;;;;5069594;27;20581;-45
2022/03/26 08:34:21;;;;;;;65.30;31.57;;;9.60;99.90;;;;;;5074013;27;20224;-44
2022/03/26 08:36:48;;;;;;;53.83;29.33;;;9.80;99.90;;;;;;5094004;27;20199;-44
2022/03/26 08:39:16;;;;;;;51.03;27.50;;;9.90;99.90;;;;;;5076450;27;20247;-45
2022/03/26 08:41:43;;;;;;;48.83;27.67;;;10.00;99.90;;;;;;5066778;27;20520;-45
2022/03/26 08:44:10;;;;;;;47.83;23.50;;;10.10;99.90;;;;;;5093144;28;20473;-45
2022/03/26 08:46:37;;;;;;;36.07;19.20;;;10.20;99.90;;;;;;5073007;28;20214;-44
2022/03/26 08:49:04;;;;;;;33.23;18.33;;;10.20;99.90;;;;;;5085276;27;20285;-45
2022/03/26 08:51:31;;;;;;;34.63;18.47;;;10.40;99.90;;;;;;5076154;27;20318;-45
2022/03/26 08:53:58;;;;;;;25.97;17.47;;;10.50;99.90;;;;;;5087760;27;20225;-44
2022/03/26 08:56:26;;;;;;;29.67;16.37;;;10.70;99.90;;;;;;5082439;28;20198;-45
2022/03/26 08:58:53;;;;;;;26.40;14.70;;;10.80;99.90;;;;;;5064352;27;20225;-45
2022/03/26 09:01:20;;;;;;;26.90;13.63;;;10.80;99.90;;;;;;5086905;27;20215;-45
2022/03/26 09:03:50;;;;;;;25.93;13.87;;;11.00;99.90;;;;;;5081838;27;22185;-44
2022/03/26 09:06:17;;;;;;;23.40;12.97;;;11.10;99.90;;;;;;5083566;27;20208;-44
2022/03/26 09:08:44;;;;;;;22.20;13.00;;;11.30;99.90;;;;;;5075630;28;20233;-44
2022/03/26 09:11:11;;;;;;;23.08;13.10;;;11.40;99.90;;;;;;5089279;28;20231;-45
2022/03/26 09:13:39;;;;;;;23.83;11.85;;;11.40;99.90;;;;;;5070947;27;20429;-45
2022/03/26 09:16:07;;;;;;;26.23;13.67;;;11.40;99.90;;;;;;5083703;28;20448;-45
2022/03/26 09:18:33;;;;;;;22.67;13.30;;;11.40;99.90;;;;;;5057921;27;20297;-44
2022/03/26 09:21:01;;;;;;;20.03;13.23;;;11.50;99.90;;;;;;5088636;28;20299;-45
2022/03/26 09:23:27;;;;;;;24.63;12.53;;;11.50;99.90;;;;;;5075869;28;20250;-44
2022/03/26 09:25:55;;;;;;;23.00;14.07;;;11.50;99.90;;;;;;5077371;28;20209;-45
2022/03/26 09:28:22;;;;;;;22.08;12.98;;;11.50;99.90;;;;;;5082882;28;20284;-43
2022/03/26 09:30:51;;;;;;;24.17;12.98;;;11.40;99.90;;;;;;5078792;27;20261;-45
2022/03/26 09:33:18;;;;;;;27.10;15.02;;;11.50;99.90;;;;;;5075829;27;20232;-45
2022/03/26 09:35:45;;;;;;;25.60;13.63;;;11.50;99.90;;;;;;5081482;27;20309;-45
2022/03/26 09:38:11;;;;;;;25.93;13.67;;;11.60;99.90;;;;;;5088875;27;20599;-45
2022/03/26 09:40:43;;;;;;;26.80;15.40;;;11.60;99.90;;;;;;5085454;27;20231;-45
2022/03/26 09:43:13;;;;;;;27.80;14.25;;;11.60;99.90;;;;;;5087702;27;20611;-45
2022/03/26 09:45:40;;;;;;;23.57;14.90;;;11.60;99.90;;;;;;5068577;27;20211;-44
2022/03/26 09:48:08;;;;;;;30.45;16.05;;;11.60;99.90;;;;;;5089144;27;20207;-45
2022/03/26 09:50:36;;;;;;;26.80;14.75;;;11.60;99.90;;;;;;5079934;27;20252;-45
2022/03/26 09:53:03;;;;;;;25.48;14.13;;;11.70;99.90;;;;;;5082635;28;20228;-45
2022/03/26 09:55:31;;;;;;;21.75;12.85;;;11.90;99.90;;;;;;5083772;27;20199;-45
2022/03/26 09:57:58;;;;;;;19.35;12.10;;;11.90;99.90;;;;;;5096688;27;20591;-44
2022/03/26 10:00:25;;;;;;;19.08;11.32;;;12.00;99.90;;;;;;5068107;28;20199;-45
2022/03/26 10:02:52;;;;;;;24.48;12.05;;;12.00;99.90;;;;;;5070284;27;20889;-45
2022/03/26 10:05:20;;;;;;;23.10;12.43;;;12.00;99.90;;;;;;5079297;27;20229;-45
2022/03/26 10:07:49;;;;;;;22.88;12.23;;;12.10;99.90;;;;;;5065857;27;20211;-45
2022/03/26 10:10:23;;;;;;;20.85;12.30;;;12.20;99.90;;;;;;5075660;27;20450;-49
2022/03/26 10:12:51;;;;;;;16.38;9.95;;;12.30;99.90;;;;;;5095524;27;20233;-45
2022/03/26 10:15:19;;;;;;;15.55;9.65;;;12.40;99.90;;;;;;5063657;27;20200;-45
2022/03/26 10:17:46;;;;;;;13.75;9.20;;;12.50;99.90;;;;;;5076715;27;20203;-46
2022/03/26 10:20:14;;;;;;;12.57;7.80;;;12.60;99.90;;;;;;5088015;27;20214;-45
2022/03/26 10:22:44;;;;;;;10.50;7.30;;;12.60;99.90;;;;;;5069824;27;20260;-44
2022/03/26 10:25:13;;;;;;;8.68;5.85;;;12.50;99.90;;;;;;5078236;27;20208;-45
2022/03/26 10:27:42;;;;;;;15.07;7.43;;;12.50;99.90;;;;;;5079533;27;20208;-45
2022/03/26 10:30:10;;;;;;;11.80;6.55;;;12.50;99.90;;;;;;5095754;27;20228;-45
2022/03/26 10:32:45;;;;;;;10.98;5.53;;;12.50;99.90;;;;;;5062501;27;20239;-46
2022/03/26 10:35:23;;;;;;;8.48;4.95;;;12.50;99.90;;;;;;5090595;27;20245;-45
2022/03/26 10:37:56;;;;;;;10.07;5.95;;;12.50;99.90;;;;;;5077159;27;20413;-44
2022/03/26 10:40:31;;;;;;;8.55;5.90;;;12.50;99.90;;;;;;5095582;27;20416;-46
2022/03/26 10:43:08;;;;;;;9.98;6.15;;;12.50;99.90;;;;;;5091488;27;20228;-45
2022/03/26 10:45:37;;;;;;;10.57;6.20;;;12.70;99.90;;;;;;5076084;27;20203;-46
2022/03/26 10:48:08;;;;;;;8.30;5.15;;;12.80;99.90;;;;;;5079942;27;20228;-47
2022/03/26 10:50:36;;;;;;;11.02;5.88;;;12.90;99.90;;;;;;5081537;27;20219;-48
2022/03/26 10:53:13;;;;;;;9.52;6.25;;;12.90;99.90;;;;;;5073937;27;20234;-45
2022/03/26 10:55:43;;;;;;;8.82;5.97;;;12.80;99.90;;;;;;5085090;27;20540;-45
2022/03/26 10:58:11;;;;;;;9.52;5.68;;;12.90;99.90;;;;;;5087946;27;20221;-46
2022/03/26 11:00:38;;;;;;;12.00;6.32;;;12.80;99.90;;;;;;5081906;27;20199;-45
2022/03/26 11:03:05;;;;;;;11.48;6.63;;;12.90;99.90;;;;;;5045230;27;20223;-45
2022/03/26 11:05:34;;;;;;;9.10;6.05;;;12.90;99.90;;;;;;5087141;27;20579;-46
2022/03/26 11:08:02;;;;;;;10.30;6.25;;;12.90;99.90;;;;;;5057102;27;20195;-46
2022/03/26 11:10:33;;;;;;;8.95;5.95;;;12.90;99.90;;;;;;5083471;27;20249;-45
2022/03/26 11:13:03;;;;;;;8.52;6.47;;;12.80;99.90;;;;;;5083899;27;20302;-45
2022/03/26 11:15:35;;;;;;;14.55;6.20;;;12.80;99.90;;;;;;5073118;27;20533;-45
2022/03/26 11:18:25;;;;;;;10.98;6.40;;;12.80;99.90;;;;;;5070867;27;20208;-45
2022/03/26 11:21:27;;;;;;;13.35;6.30;;;12.80;99.90;;;;;;5083944;27;20445;-45
2022/03/26 11:24:10;;;;;;;11.75;5.80;;;12.90;99.90;;;;;;5040486;28;20449;-46
2022/03/26 11:26:50;;;;;;;11.23;4.95;;;13.00;99.90;;;;;;5073146;27;20611;-44
2022/03/26 11:29:42;;;;;;;6.25;4.55;;;12.90;99.90;;;;;;5078375;27;20257;-46
2022/03/26 11:32:20;;;;;;;8.07;5.75;;;12.90;99.90;;;;;;5069575;27;20213;-45
2022/03/26 11:34:57;;;;;;;7.40;4.82;;;12.80;99.90;;;;;;5062825;27;20232;-45
2022/03/26 11:37:24;;;;;;;9.70;5.45;;;12.80;99.90;;;;;;5068657;27;20274;-45
2022/03/26 11:39:53;;;;;;;7.22;5.35;;;12.80;99.90;;;;;;5069506;27;20275;-44
2022/03/26 11:42:25;;;;;;;8.32;5.35;;;12.90;99.90;;;;;;5076995;27;20208;-46
2022/03/26 11:50:42;;;;;;;8.45;4.25;;;12.90;99.90;;;;;;5068745;27;20234;-46
2022/03/26 11:53:12;;;;;;;9.68;4.40;;;12.70;99.90;;;;;;5069392;28;20553;-49
2022/03/26 11:55:44;;;;;;;7.85;4.32;;;12.40;99.90;;;;;;5075630;27;20312;-48
2022/03/26 11:58:20;;;;;;;9.43;4.93;;;12.30;99.90;;;;;;5085291;27;20231;-49
2022/03/26 12:00:58;;;;;;;8.35;4.53;;;12.20;99.90;;;;;;5085882;27;22261;-44
2022/03/26 12:03:27;;;;;;;10.60;4.40;;;12.20;99.90;;;;;;5076048;27;20466;-46
2022/03/26 12:08:50;;;;;;;6.85;4.03;;;12.00;99.90;;;;;;5036812;27;20203;-46
2022/03/26 12:11:19;;;;;;;6.13;3.53;;;12.10;99.90;;;;;;5086676;27;20441;-43
2022/03/26 12:14:01;;;;;;;7.22;3.78;;;11.90;99.90;;;;;;5060222;27;20280;-49
2022/03/26 12:16:53;;;;;;;6.78;4.38;;;11.80;99.90;;;;;;5085125;27;20279;-47
2022/03/26 12:19:41;;;;;;;6.60;4.00;;;11.90;99.90;;;;;;5086642;27;20207;-49
2022/03/26 12:22:23;;;;;;;5.97;4.28;;;11.90;99.90;;;;;;5061675;27;20233;-47
2022/03/26 12:24:51;;;;;;;4.82;3.70;;;11.90;99.90;;;;;;5067620;28;20231;-45
2022/03/26 12:27:18;;;;;;;6.53;3.97;;;11.90;99.90;;;;;;5098733;27;20478;-48
2022/03/26 12:29:46;;;;;;;3.80;3.10;;;12.00;99.90;;;;;;5065717;28;20199;-49
2022/03/26 12:32:14;;;;;;;7.80;3.67;;;12.00;99.90;;;;;;5074552;28;20215;-48
2022/03/26 12:34:54;;;;;;;8.75;3.25;;;11.90;99.90;;;;;;5064849;28;20230;-49
2022/03/26 12:37:23;;;;;;;5.18;3.25;;;12.00;99.90;;;;;;5075212;27;20209;-44
2022/03/26 12:39:50;;;;;;;4.10;2.50;;;12.10;99.90;;;;;;5069264;27;21320;-46
2022/03/26 12:42:19;;;;;;;4.78;2.40;;;12.00;99.90;;;;;;5075457;27;20236;-47
2022/03/26 12:44:48;;;;;;;4.40;2.15;;;12.20;99.90;;;;;;5084524;27;20246;-50
2022/03/26 12:47:18;;;;;;;2.97;2.15;;;12.30;99.90;;;;;;5092673;27;20235;-46
2022/03/26 12:49:47;;;;;;;4.15;2.45;;;12.20;99.90;;;;;;5077586;27;20203;-46